createdAt,value
2018-10-03T00:01:37.500Z,98192.41
2018-10-03T00:04:07.003Z,98197.06
2018-10-03T00:06:36.486Z,98198.78
2018-10-03T00:09:08.291Z,98195.81
2018-10-03T00:11:37.707Z,98197.52
2018-10-03T00:14:07.936Z,98197.51
2018-10-03T00:16:37.393Z,98200.52
2018-10-03T00:19:06.846Z,98193.66
2018-10-03T00:21:36.310Z,98191.95
2018-10-03T00:24:07.848Z,98191.50
2018-10-03T00:26:37.347Z,98187.23
2018-10-03T00:29:06.807Z,98197.46
2018-10-03T00:31:36.538Z,98182.99
2018-10-03T00:34:06.135Z,98204.75
2018-10-03T00:36:35.724Z,98195.81
2018-10-03T00:39:07.693Z,98200.91
2018-10-03T00:41:37.144Z,98189.39
2018-10-03T00:44:06.895Z,98194.91
2018-10-03T00:46:36.426Z,98200.94
2018-10-03T00:49:06.527Z,98196.66
2018-10-03T00:51:36.147Z,98198.33
2018-10-03T00:54:05.721Z,98199.16
2018-10-03T00:56:36.211Z,98204.32
2018-10-03T00:59:05.908Z,98212.46
2018-10-03T01:01:35.335Z,98211.55
2018-10-03T01:04:04.824Z,98223.52
2018-10-03T01:06:34.272Z,98223.07
2018-10-03T01:09:04.027Z,98237.56
2018-10-03T01:11:33.487Z,98240.08
2018-10-03T01:14:02.924Z,98231.90
2018-10-03T01:16:32.635Z,98237.88
2018-10-03T01:19:02.115Z,98235.70
2018-10-03T01:21:31.537Z,98236.97
2018-10-03T01:24:01.007Z,98237.00
2018-10-03T01:26:30.424Z,98222.46
2018-10-03T01:28:59.979Z,98215.58
2018-10-03T01:31:29.427Z,98215.13
2018-10-03T01:33:59.453Z,98217.27
2018-10-03T01:36:29.384Z,98219.81
2018-10-03T01:38:59.575Z,98216.42
2018-10-03T01:41:29.662Z,98213.45
2018-10-03T01:44:00.122Z,98221.09
2018-10-03T01:46:30.402Z,98225.82
2018-10-03T01:49:00.651Z,98229.68
2018-10-03T01:51:30.545Z,98234.86
2018-10-03T01:54:00.628Z,98237.83
2018-10-03T01:56:32.623Z,98251.95
2018-10-03T01:59:02.812Z,98250.16
2018-10-03T02:01:32.865Z,98240.30
2018-10-03T02:04:02.893Z,98244.59
2018-10-03T02:06:33.336Z,98250.61
2018-10-03T02:09:03.967Z,98254.91
2018-10-03T02:11:34.375Z,98259.59
2018-10-03T02:14:04.696Z,98259.19
2018-10-03T02:16:34.997Z,98260.91
2018-10-03T02:19:05.357Z,98266.42
2018-10-03T02:21:35.812Z,98269.84
2018-10-03T02:24:06.453Z,98264.76
2018-10-03T02:26:36.846Z,98266.92
2018-10-03T02:29:08.548Z,98270.77
2018-10-03T02:31:39.588Z,98267.34
2018-10-03T02:34:09.794Z,98269.93
2018-10-03T02:36:40.419Z,98253.26
2018-10-03T02:39:11.235Z,98255.37
2018-10-03T02:41:42.016Z,98277.17
2018-10-03T02:44:15.109Z,98267.84
2018-10-03T02:46:45.742Z,98273.86
2018-10-03T02:49:16.417Z,98261.52
2018-10-03T02:51:46.657Z,98276.45
2018-10-03T02:54:17.334Z,98286.30
2018-10-03T02:56:47.933Z,98278.61
2018-10-03T02:59:18.578Z,98281.61
2018-10-03T03:01:49.177Z,98280.34
2018-10-03T03:04:19.808Z,98282.88
2018-10-03T03:06:50.485Z,98285.44
2018-10-03T03:09:20.966Z,98282.45
2018-10-03T03:11:51.410Z,98289.30
2018-10-03T03:14:21.735Z,98276.91
2018-10-03T03:16:52.071Z,98291.03
2018-10-03T03:19:22.237Z,98297.00
2018-10-03T03:21:52.338Z,98291.89
2018-10-03T03:24:22.457Z,98291.06
2018-10-03T03:26:52.787Z,98288.90
2018-10-03T03:29:23.177Z,98290.62
2018-10-03T03:31:53.888Z,98286.78
2018-10-03T03:34:24.509Z,98285.94
2018-10-03T03:36:54.644Z,98293.22
2018-10-03T03:39:25.199Z,98291.51
2018-10-03T03:41:55.855Z,98142.60
2018-10-03T03:44:26.067Z,98291.94
2018-10-03T03:46:56.480Z,98293.64
2018-10-03T03:49:26.897Z,98191.64
2018-10-03T03:51:57.324Z,98295.36
2018-10-03T03:54:27.298Z,98296.64
2018-10-03T03:56:57.280Z,98311.13
2018-10-03T03:59:27.432Z,98315.41
2018-10-03T04:01:57.597Z,98317.98
2018-10-03T04:04:28.036Z,98314.56
2018-10-03T04:06:58.069Z,98316.30
2018-10-03T04:09:28.268Z,98319.23
2018-10-03T04:11:58.500Z,98311.95
2018-10-03T04:14:28.524Z,98316.67
2018-10-03T04:16:58.388Z,98314.95
2018-10-03T04:19:28.554Z,98314.97
2018-10-03T04:21:58.864Z,98315.39
2018-10-03T04:24:28.952Z,98324.34
2018-10-03T04:26:58.841Z,98317.53
2018-10-03T04:29:29.073Z,98326.05
2018-10-03T04:31:59.319Z,98335.87
2018-10-03T04:34:30.079Z,98332.88
2018-10-03T04:37:00.789Z,98333.31
2018-10-03T04:39:31.820Z,98330.77
2018-10-03T04:42:01.435Z,98342.70
2018-10-03T04:44:30.996Z,98345.25
2018-10-03T04:47:00.808Z,98346.13
2018-10-03T04:49:30.841Z,98358.49
2018-10-03T04:52:00.950Z,98355.91
2018-10-03T04:54:31.009Z,98319.16
2018-10-03T04:57:00.987Z,98365.70
2018-10-03T04:59:30.804Z,98374.27
2018-10-03T05:02:00.372Z,98379.83
2018-10-03T05:04:30.060Z,98374.70
2018-10-03T05:06:59.876Z,98375.15
2018-10-03T05:09:29.438Z,98376.84
2018-10-03T05:11:59.990Z,98367.48
2018-10-03T05:14:29.853Z,98378.14
2018-10-03T05:16:59.634Z,98375.13
2018-10-03T05:19:31.198Z,98379.81
2018-10-03T05:22:00.799Z,98381.56
2018-10-03T05:24:30.545Z,98383.69
2018-10-03T05:27:00.140Z,98387.52
2018-10-03T05:29:29.792Z,98398.22
2018-10-03T05:31:59.364Z,98402.95
2018-10-03T05:34:28.977Z,98416.63
2018-10-03T05:36:58.688Z,98412.78
2018-10-03T05:39:28.281Z,98421.77
2018-10-03T05:41:57.836Z,98422.61
2018-10-03T05:44:27.325Z,98416.64
2018-10-03T05:46:56.947Z,98420.05
2018-10-03T05:49:27.722Z,98422.17
2018-10-03T05:51:57.375Z,98419.61
2018-10-03T05:54:26.980Z,98414.05
2018-10-03T05:56:57.443Z,98417.48
2018-10-03T05:59:26.904Z,98405.95
2018-10-03T06:01:56.319Z,98422.17
2018-10-03T06:04:25.759Z,98424.30
2018-10-03T06:06:55.184Z,98430.28
2018-10-03T06:09:24.604Z,98432.86
2018-10-03T06:11:54.046Z,98435.85
2018-10-03T06:14:23.463Z,98437.13
2018-10-03T06:16:52.874Z,98435.84
2018-10-03T06:19:22.307Z,98443.97
2018-10-03T06:21:51.757Z,98440.98
2018-10-03T06:24:21.229Z,98439.28
2018-10-03T06:26:50.666Z,98443.98
2018-10-03T06:29:20.188Z,98433.30
2018-10-03T06:31:49.620Z,98457.22
2018-10-03T06:34:20.161Z,98464.06
2018-10-03T06:36:49.579Z,98470.91
2018-10-03T06:39:19.069Z,98474.76
2018-10-03T06:41:48.449Z,98474.72
2018-10-03T06:44:17.864Z,98480.30
2018-10-03T06:46:47.312Z,98488.84
2018-10-03T06:49:16.725Z,98495.25
2018-10-03T06:51:46.156Z,98494.39
2018-10-03T06:54:15.592Z,98503.34
2018-10-03T06:56:45.120Z,98507.20
2018-10-03T06:59:14.579Z,98502.50
2018-10-03T07:01:43.999Z,98504.65
2018-10-03T07:04:13.529Z,98503.75
2018-10-03T07:06:42.987Z,98505.47
2018-10-03T07:09:12.397Z,98512.30
2018-10-03T07:11:41.848Z,98509.73
2018-10-03T07:14:11.447Z,98510.14
2018-10-03T07:16:40.895Z,98521.27
2018-10-03T07:19:10.352Z,98525.95
2018-10-03T07:21:39.976Z,98517.83
2018-10-03T07:24:09.419Z,98510.61
2018-10-03T07:26:38.847Z,98530.25
2018-10-03T07:29:08.280Z,98532.38
2018-10-03T07:31:37.709Z,98494.37
2018-10-03T07:34:07.213Z,98545.23
2018-10-03T07:36:36.643Z,98570.05
2018-10-03T07:39:08.399Z,98556.36
2018-10-03T07:41:37.825Z,98562.36
2018-10-03T07:44:07.700Z,98564.05
2018-10-03T07:46:37.116Z,98562.77
2018-10-03T07:49:06.617Z,98577.75
2018-10-03T07:51:36.078Z,98579.86
2018-10-03T07:54:05.557Z,98580.30
2018-10-03T07:56:35.041Z,98581.98
2018-10-03T07:59:04.632Z,98590.97
2018-10-03T08:01:34.070Z,98593.13
2018-10-03T08:04:03.479Z,98588.84
2018-10-03T08:06:32.920Z,98599.99
2018-10-03T08:09:02.348Z,98613.25
2018-10-03T08:11:31.884Z,98615.44
2018-10-03T08:14:01.301Z,98611.98
2018-10-03T08:16:30.738Z,98619.25
2018-10-03T08:19:00.243Z,98625.69
2018-10-03T08:21:29.689Z,98626.11
2018-10-03T08:23:59.091Z,98629.96
2018-10-03T08:26:28.519Z,98631.68
2018-10-03T08:28:57.937Z,98638.09
2018-10-03T08:31:27.336Z,98641.11
2018-10-03T08:33:56.760Z,98638.92
2018-10-03T08:36:26.175Z,98639.33
2018-10-03T08:38:55.709Z,98639.70
2018-10-03T08:41:25.154Z,98649.54
2018-10-03T08:43:54.532Z,98642.30
2018-10-03T08:46:23.986Z,98652.13
2018-10-03T08:48:53.403Z,98661.13
2018-10-03T08:51:22.832Z,98668.00
2018-10-03T08:53:52.271Z,98669.70
2018-10-03T08:56:21.672Z,98677.82
2018-10-03T08:58:51.085Z,98672.25
2018-10-03T09:01:20.603Z,98686.39
2018-10-03T09:03:50.012Z,98689.81
2018-10-03T09:06:19.584Z,98688.58
2018-10-03T09:08:48.987Z,98687.69
2018-10-03T09:11:18.384Z,98688.12
2018-10-03T09:13:47.836Z,98694.55
2018-10-03T09:16:17.227Z,98699.27
2018-10-03T09:18:46.644Z,98699.66
2018-10-03T09:21:16.151Z,98705.19
2018-10-03T09:23:45.555Z,98710.75
2018-10-03T09:26:14.984Z,98701.73
2018-10-03T09:28:44.416Z,98708.56
2018-10-03T09:31:14.056Z,98712.85
2018-10-03T09:33:43.551Z,98710.80
2018-10-03T09:36:12.995Z,98723.67
2018-10-03T09:38:42.403Z,98723.66
2018-10-03T09:41:11.827Z,98733.94
2018-10-03T09:43:41.384Z,98733.06
2018-10-03T09:46:10.775Z,98740.76
2018-10-03T09:48:40.191Z,98739.84
2018-10-03T09:51:09.629Z,98744.54
2018-10-03T09:53:39.049Z,98740.25
2018-10-03T09:56:08.795Z,98742.39
2018-10-03T09:58:38.355Z,98772.05
2018-10-03T10:01:12.976Z,98763.06
2018-10-03T10:03:42.390Z,98773.33
2018-10-03T10:06:11.812Z,98767.30
2018-10-03T10:08:41.240Z,98766.45
2018-10-03T10:11:10.665Z,98780.63
2018-10-03T10:13:40.148Z,98776.28
2018-10-03T10:16:09.583Z,98783.63
2018-10-03T10:18:39.012Z,98786.63
2018-10-03T10:21:08.464Z,98793.47
2018-10-03T10:23:37.953Z,98793.91
2018-10-03T10:26:07.383Z,98786.63
2018-10-03T10:28:36.808Z,98797.77
2018-10-03T10:31:06.285Z,98785.36
2018-10-03T10:33:35.688Z,98793.05
2018-10-03T10:36:05.148Z,98798.19
2018-10-03T10:38:34.563Z,98791.29
2018-10-03T10:41:04.020Z,98796.72
2018-10-03T10:43:33.557Z,98795.73
2018-10-03T10:46:02.843Z,98800.48
2018-10-03T10:48:32.275Z,98798.60
2018-10-03T10:51:01.691Z,98803.28
2018-10-03T10:53:31.140Z,98809.82
2018-10-03T10:56:07.464Z,98810.85
2018-10-03T10:58:36.884Z,98814.16
2018-10-03T11:01:06.302Z,98817.55
2018-10-03T11:03:35.732Z,98823.12
2018-10-03T11:06:05.315Z,98818.39
2018-10-03T11:08:34.676Z,98814.55
2018-10-03T11:11:04.227Z,98806.83
2018-10-03T11:13:33.668Z,98813.75
2018-10-03T11:16:03.080Z,98807.79
2018-10-03T11:18:32.499Z,98801.29
2018-10-03T11:21:01.931Z,98798.58
2018-10-03T11:23:31.594Z,98793.38
2018-10-03T11:26:00.915Z,98794.23
2018-10-03T11:28:31.322Z,98803.98
2018-10-03T11:31:00.740Z,98810.20
2018-10-03T11:33:30.238Z,98814.59
2018-10-03T11:35:59.676Z,98808.05
2018-10-03T11:38:29.092Z,98811.95
2018-10-03T11:40:58.491Z,98807.22
2018-10-03T11:43:27.915Z,98799.17
2018-10-03T11:45:57.336Z,98796.27
2018-10-03T11:48:26.750Z,98793.30
2018-10-03T11:50:56.180Z,98798.59
2018-10-03T11:53:25.596Z,98798.88
2018-10-03T11:55:55.074Z,98794.48
2018-10-03T11:58:24.494Z,98801.70
2018-10-03T12:00:53.900Z,98807.20
2018-10-03T12:03:23.359Z,98801.16
2018-10-03T12:05:52.784Z,98809.38
2018-10-03T12:08:22.190Z,98802.55
2018-10-03T12:10:51.608Z,98805.86
2018-10-03T12:13:21.025Z,98806.83
2018-10-03T12:15:50.436Z,98796.91
2018-10-03T12:18:19.852Z,98798.34
2018-10-03T12:20:49.261Z,98794.95
2018-10-03T12:23:18.663Z,98790.26
2018-10-03T12:25:48.080Z,98787.91
2018-10-03T12:28:17.484Z,98789.71
2018-10-03T12:30:47.226Z,98793.74
2018-10-03T12:33:17.065Z,98805.39
2018-10-03T12:35:46.563Z,98807.86
2018-10-03T12:38:16.381Z,98802.56
2018-10-03T12:40:46.120Z,98804.38
2018-10-03T12:43:15.733Z,98803.34
2018-10-03T12:45:45.448Z,98801.23
2018-10-03T12:48:15.096Z,98807.72
2018-10-03T12:50:44.741Z,98803.22
2018-10-03T12:53:14.549Z,98804.91
2018-10-03T12:55:44.285Z,98800.47
2018-10-03T12:58:13.987Z,98812.87
2018-10-03T13:00:43.632Z,98814.12
2018-10-03T13:03:13.362Z,98807.95
2018-10-03T13:05:43.059Z,98810.20
2018-10-03T13:08:12.692Z,98819.86
2018-10-03T13:10:42.352Z,98813.34
2018-10-03T13:13:12.019Z,98815.10
2018-10-03T13:15:41.627Z,98808.14
2018-10-03T13:18:11.690Z,98811.61
2018-10-03T13:20:41.404Z,98807.91
2018-10-03T13:23:11.783Z,98813.84
2018-10-03T13:25:41.412Z,98813.30
2018-10-03T13:28:11.693Z,98810.88
2018-10-03T13:30:41.454Z,98806.56
2018-10-03T13:33:18.184Z,98806.81
2018-10-03T13:35:47.739Z,98783.97
2018-10-03T13:38:17.260Z,98813.41
2018-10-03T13:40:46.957Z,98811.08
2018-10-03T13:43:16.639Z,98812.84
2018-10-03T13:45:46.450Z,98784.02
2018-10-03T13:48:16.070Z,98794.69
2018-10-03T13:50:45.744Z,98825.20
2018-10-03T13:53:15.488Z,98820.33
2018-10-03T13:55:45.162Z,98825.00
2018-10-03T13:58:14.801Z,98827.93
2018-10-03T14:00:44.403Z,98835.56
2018-10-03T14:03:14.109Z,98819.95
2018-10-03T14:05:43.673Z,98829.00
2018-10-03T14:08:13.237Z,98821.09
2018-10-03T14:10:42.813Z,98812.27
2018-10-03T14:13:12.351Z,98819.18
2018-10-03T14:15:41.988Z,98815.91
2018-10-03T14:18:11.868Z,98812.66
2018-10-03T14:20:41.568Z,98813.19
2018-10-03T14:23:11.844Z,98807.65
2018-10-03T14:25:41.528Z,98803.50
2018-10-03T14:28:11.924Z,98809.87
2018-10-03T14:30:41.592Z,98804.92
2018-10-03T14:33:11.904Z,98802.63
2018-10-03T14:35:41.557Z,98815.75
2018-10-03T14:38:11.887Z,98817.30
2018-10-03T14:40:41.448Z,98810.52
2018-10-03T14:43:11.937Z,98735.70
2018-10-03T14:45:41.484Z,98820.80
2018-10-03T14:48:11.984Z,98827.44
2018-10-03T14:50:41.576Z,98824.94
2018-10-03T14:53:11.941Z,98744.36
2018-10-03T14:55:41.472Z,98832.55
2018-10-03T14:58:11.860Z,98814.92
2018-10-03T15:00:41.651Z,98824.19
2018-10-03T15:03:11.766Z,98824.41
2018-10-03T15:05:41.393Z,98828.86
2018-10-03T15:08:18.460Z,98842.25
2018-10-03T15:10:48.076Z,98842.56
2018-10-03T15:13:17.773Z,98844.17
2018-10-03T15:15:47.377Z,98848.73
2018-10-03T15:18:17.151Z,98846.08
2018-10-03T15:20:46.781Z,98858.14
2018-10-03T15:23:16.356Z,98853.59
2018-10-03T15:25:46.516Z,98851.60
2018-10-03T15:28:16.120Z,98856.16
2018-10-03T15:30:45.903Z,98859.08
2018-10-03T15:33:15.568Z,98856.98
2018-10-03T15:35:45.253Z,98854.98
2018-10-03T15:38:14.818Z,98858.89
2018-10-03T15:40:44.396Z,98863.34
2018-10-03T15:43:14.001Z,98866.03
2018-10-03T15:45:43.604Z,98872.42
2018-10-03T15:48:13.327Z,98874.98
2018-10-03T15:50:42.829Z,98878.09
2018-10-03T15:53:12.517Z,98874.97
2018-10-03T15:55:42.251Z,98856.72
2018-10-03T15:58:11.927Z,98884.41
2018-10-03T16:00:41.554Z,98890.92
2018-10-03T16:03:11.884Z,98885.36
2018-10-03T16:05:41.567Z,98891.54
2018-10-03T16:08:12.016Z,98894.34
2018-10-03T16:10:41.719Z,98901.39
2018-10-03T16:13:12.019Z,98897.92
2018-10-03T16:15:41.741Z,98883.09
2018-10-03T16:18:11.841Z,98898.63
2018-10-03T16:20:41.463Z,98905.14
2018-10-03T16:23:11.759Z,98913.78
2018-10-03T16:25:41.512Z,98913.42
2018-10-03T16:28:11.889Z,98913.44
2018-10-03T16:30:41.534Z,98915.18
2018-10-03T16:33:11.908Z,98913.45
2018-10-03T16:35:41.651Z,98919.46
2018-10-03T16:38:11.849Z,98917.77
2018-10-03T16:40:41.638Z,98914.75
2018-10-03T16:43:12.020Z,98919.43
2018-10-03T16:45:41.635Z,98925.44
2018-10-03T16:48:12.400Z,98922.85
2018-10-03T16:50:42.162Z,98929.70
2018-10-03T16:53:12.145Z,98929.23
2018-10-03T16:55:42.055Z,98931.75
2018-10-03T16:58:12.877Z,98924.88
2018-10-03T17:00:43.227Z,98932.14
2018-10-03T17:03:13.592Z,98939.42
2018-10-03T17:05:43.464Z,98946.16
2018-10-03T17:08:14.190Z,98949.98
2018-10-03T17:10:44.489Z,98947.34
2018-10-03T17:13:14.555Z,98956.73
2018-10-03T17:15:50.792Z,98954.52
2018-10-03T17:18:20.658Z,98955.70
2018-10-03T17:20:50.748Z,98959.03
2018-10-03T17:23:21.399Z,98952.56
2018-10-03T17:25:53.178Z,98959.38
2018-10-03T17:28:25.494Z,98955.41
2018-10-03T17:30:57.931Z,98966.39
2018-10-03T17:33:30.371Z,98969.30
2018-10-03T17:36:02.562Z,98967.06
2018-10-03T17:38:35.301Z,98971.65
2018-10-03T17:41:08.273Z,98979.14
2018-10-03T17:43:40.853Z,98981.19
2018-10-03T17:46:13.551Z,98966.41
2018-10-03T17:48:46.206Z,98987.03
2018-10-03T17:51:18.975Z,98989.08
2018-10-03T17:53:51.814Z,98998.45
2018-10-03T17:56:24.670Z,98992.78
2018-10-03T17:58:57.446Z,99001.69
2018-10-03T18:01:31.732Z,98997.17
2018-10-03T18:04:04.747Z,98999.68
2018-10-03T18:06:37.768Z,99011.90
2018-10-03T18:09:13.317Z,99014.82
2018-10-03T18:11:47.130Z,99017.70
2018-10-03T18:14:19.874Z,99014.70
2018-10-03T18:16:52.456Z,99017.11
2018-10-03T18:19:25.544Z,99026.84
2018-10-03T18:21:58.333Z,99024.22
2018-10-03T18:24:38.315Z,98997.44
2018-10-03T18:27:11.154Z,99023.45
2018-10-03T18:29:43.944Z,99028.36
2018-10-03T18:32:16.923Z,99023.84
2018-10-03T18:34:51.565Z,99031.94
2018-10-03T18:37:24.586Z,99035.50
2018-10-03T18:39:57.368Z,99032.37
2018-10-03T18:42:30.220Z,99031.19
2018-10-03T18:45:03.283Z,99028.94
2018-10-03T18:47:36.968Z,99011.13
2018-10-03T18:50:09.873Z,99037.80
2018-10-03T18:52:42.677Z,99029.00
2018-10-03T18:55:16.242Z,99034.95
2018-10-03T18:57:49.230Z,99041.73
2018-10-03T19:00:22.787Z,99038.03
2018-10-03T19:02:56.122Z,99036.77
2018-10-03T19:05:29.104Z,99043.15
2018-10-03T19:08:02.086Z,99017.82
2018-10-03T19:10:35.263Z,99050.78
2018-10-03T19:13:09.406Z,99044.33
2018-10-03T19:15:42.942Z,99045.94
2018-10-03T19:18:15.608Z,99055.30
2018-10-03T19:20:48.783Z,99050.06
2018-10-03T19:23:22.124Z,99059.91
2018-10-03T19:25:55.230Z,99055.24
2018-10-03T19:28:30.198Z,99057.14
2018-10-03T19:31:03.233Z,99058.55
2018-10-03T19:33:36.407Z,99062.30
2018-10-03T19:36:10.058Z,99060.02
2018-10-03T19:38:43.285Z,99063.82
2018-10-03T19:41:16.602Z,99062.83
2018-10-03T19:43:49.679Z,99064.86
2018-10-03T19:46:22.990Z,99064.34
2018-10-03T19:48:56.041Z,99060.33
2018-10-03T19:51:29.209Z,99061.45
2018-10-03T19:54:02.113Z,99063.53
2018-10-03T19:56:35.837Z,99064.64
2018-10-03T19:59:08.782Z,99068.45
2018-10-03T20:01:41.790Z,99075.48
2018-10-03T20:04:14.722Z,99075.98
2018-10-03T20:06:48.517Z,99077.28
2018-10-03T20:09:21.268Z,99072.27
2018-10-03T20:11:55.090Z,99076.00
2018-10-03T20:14:28.574Z,99085.39
2018-10-03T20:17:01.786Z,99077.67
2018-10-03T20:19:34.807Z,99075.78
2018-10-03T20:22:12.044Z,99076.11
2018-10-03T20:24:45.063Z,99070.09
2018-10-03T20:27:18.264Z,99072.42
2018-10-03T20:29:51.420Z,99079.41
2018-10-03T20:32:24.602Z,99079.80
2018-10-03T20:34:57.728Z,99071.06
2018-10-03T20:37:30.661Z,99069.73
2018-10-03T20:40:03.970Z,99078.91
2018-10-03T20:42:37.057Z,99077.36
2018-10-03T20:45:10.240Z,99078.75
2018-10-03T20:47:43.238Z,99069.63
2018-10-03T20:50:16.441Z,99075.90
2018-10-03T20:52:49.406Z,99076.61
2018-10-03T20:55:22.574Z,99073.55
2018-10-03T20:57:57.075Z,99070.91
2018-10-03T21:00:29.971Z,99070.16
2018-10-03T21:03:03.191Z,99067.61
2018-10-03T21:05:36.301Z,99075.05
2018-10-03T21:08:09.584Z,99069.48
2018-10-03T21:10:42.473Z,99077.66
2018-10-03T21:13:15.582Z,99069.26
2018-10-03T21:15:48.231Z,99071.36
2018-10-03T21:18:19.824Z,99072.81
2018-10-03T21:20:49.722Z,99065.25
2018-10-03T21:23:19.349Z,99074.12
2018-10-03T21:25:48.780Z,99070.20
2018-10-03T21:28:18.235Z,99073.58
2018-10-03T21:30:47.647Z,99073.89
2018-10-03T21:33:17.078Z,99070.94
2018-10-03T21:35:46.696Z,99075.47
2018-10-03T21:38:16.127Z,99080.42
2018-10-03T21:40:45.552Z,99089.80
2018-10-03T21:43:15.060Z,99089.05
2018-10-03T21:45:44.460Z,99088.78
2018-10-03T21:48:13.863Z,99090.08
2018-10-03T21:50:43.281Z,99088.98
2018-10-03T21:53:12.688Z,99087.75
2018-10-03T21:55:42.158Z,99088.92
2018-10-03T21:58:12.608Z,99085.48
2018-10-03T22:00:47.244Z,99090.05
2018-10-03T22:03:16.656Z,99093.00
2018-10-03T22:05:46.078Z,99091.70
2018-10-03T22:08:15.472Z,99091.15
2018-10-03T22:10:45.531Z,99093.59
2018-10-03T22:13:14.983Z,99089.60
2018-10-03T22:15:45.355Z,99093.93
2018-10-03T22:18:14.780Z,99091.77
2018-10-03T22:20:44.266Z,99098.42
2018-10-03T22:23:13.689Z,99096.19
2018-10-03T22:25:43.116Z,99091.52
2018-10-03T22:28:12.612Z,99098.11
2018-10-03T22:30:42.088Z,99096.91
2018-10-03T22:33:12.744Z,99101.87
2018-10-03T22:35:42.164Z,99098.78
2018-10-03T22:38:12.568Z,99094.45
2018-10-03T22:40:41.992Z,99099.73
2018-10-03T22:43:12.631Z,99102.16
2018-10-03T22:45:42.048Z,99100.00
2018-10-03T22:48:12.673Z,99098.62
2018-10-03T22:50:42.172Z,99097.34
2018-10-03T22:53:12.621Z,99101.39
2018-10-03T22:55:42.014Z,99098.51
2018-10-03T22:58:12.688Z,99096.68
2018-10-03T23:00:42.087Z,99100.45
2018-10-03T23:03:12.859Z,99099.52
2018-10-03T23:05:42.304Z,99102.47
2018-10-03T23:08:12.583Z,99106.20
2018-10-03T23:10:41.990Z,99102.77
2018-10-03T23:13:12.634Z,99095.45
2018-10-03T23:15:42.059Z,99106.98
2018-10-03T23:18:12.772Z,99104.67
2018-10-03T23:20:42.183Z,99105.91
2018-10-03T23:23:12.639Z,99103.29
2018-10-03T23:25:42.035Z,99104.48
2018-10-03T23:28:12.852Z,99110.34
2018-10-03T23:30:42.253Z,99107.05
2018-10-03T23:33:12.651Z,99107.34
2018-10-03T23:35:42.051Z,99109.06
2018-10-03T23:38:12.609Z,99113.50
2018-10-03T23:40:42.044Z,99112.73
2018-10-03T23:43:12.759Z,99116.25
2018-10-03T23:45:42.188Z,99115.31
2018-10-03T23:48:12.783Z,99123.22
2018-10-03T23:50:42.268Z,99112.61
2018-10-03T23:53:12.608Z,99120.72
2018-10-03T23:55:42.009Z,99124.25
2018-10-03T23:58:12.752Z,99122.13
